Time;durP1;ratioP1;P1;durP2;ratioP2;P2;SDS_P1;SDS_P2;PMS_P1;PMS_P2;Temp;Humidity;BMP_temperature;BMP_pressure;BME280_temperature;BME280_humidity;BME280_pressure;Samples;Min_cycle;Max_cycle;Signal;HPM_P1;HPM_P2
2021/01/19 00:00:15;;;;;;;8.07;3.93;;;2.00;99.90;;;;;;5012484;28;20846;-56
2021/01/19 00:02:41;;;;;;;8.73;4.28;;;1.60;99.90;;;;;;5012008;28;20933;-54
2021/01/19 00:05:07;;;;;;;7.97;3.70;;;3.70;99.90;;;;;;5012299;28;20424;-54
2021/01/19 00:07:33;;;;;;;8.65;4.30;;;1.50;99.90;;;;;;5010524;28;20482;-54
2021/01/19 00:09:59;;;;;;;8.48;3.70;;;1.50;99.90;;;;;;5012272;28;20392;-55
2021/01/19 00:12:25;;;;;;;9.50;3.97;;;1.60;99.90;;;;;;5012404;28;20396;-54
2021/01/19 00:14:51;;;;;;;9.73;4.23;;;3.00;99.90;;;;;;5011209;28;20495;-54
2021/01/19 00:17:17;;;;;;;6.93;3.45;;;1.60;99.90;;;;;;5012106;28;20858;-54
2021/01/19 00:19:42;;;;;;;7.45;3.40;;;2.90;99.90;;;;;;5008312;28;20409;-55
2021/01/19 00:22:08;;;;;;;7.33;3.20;;;2.50;99.90;;;;;;5001630;28;20493;-54
2021/01/19 00:24:34;;;;;;;8.82;3.90;;;2.70;99.90;;;;;;5000044;28;20756;-54
2021/01/19 00:26:59;;;;;;;9.07;3.80;;;2.70;99.90;;;;;;5007121;28;20823;-54
2021/01/19 00:29:25;;;;;;;7.20;3.87;;;1.60;99.90;;;;;;5010492;28;20432;-53
2021/01/19 00:31:51;;;;;;;6.70;3.87;;;3.20;99.90;;;;;;5010014;28;20487;-54
2021/01/19 00:34:16;;;;;;;7.65;3.50;;;3.90;99.90;;;;;;5011980;28;20401;-56
2021/01/19 00:36:42;;;;;;;10.77;4.05;;;1.90;99.90;;;;;;5011254;28;20883;-53
2021/01/19 00:39:08;;;;;;;7.63;4.20;;;2.40;99.90;;;;;;4999768;28;20731;-53
2021/01/19 00:41:34;;;;;;;8.70;3.92;;;1.50;99.90;;;;;;5000824;28;20393;-53
2021/01/19 00:44:00;;;;;;;8.33;3.60;;;2.50;99.90;;;;;;4999348;28;20429;-53
2021/01/19 00:46:25;;;;;;;6.93;3.70;;;1.60;99.90;;;;;;5005158;28;20407;-54
2021/01/19 00:48:51;;;;;;;9.57;4.10;;;1.60;99.90;;;;;;5000943;28;20506;-53
2021/01/19 00:51:18;;;;;;;8.50;4.50;;;1.50;99.90;;;;;;5001104;28;20434;-53
2021/01/19 00:53:44;;;;;;;10.02;3.97;;;1.50;99.90;;;;;;4999787;28;20402;-53
2021/01/19 00:56:10;;;;;;;7.88;3.90;;;1.60;99.90;;;;;;5000683;28;20401;-53
2021/01/19 00:58:35;;;;;;;8.23;3.90;;;1.70;99.90;;;;;;4999529;28;20399;-54
2021/01/19 01:01:01;;;;;;;7.00;3.30;;;1.50;99.90;;;;;;5009875;28;20778;-54
2021/01/19 01:03:29;;;;;;;8.25;3.65;;;1.50;99.90;;;;;;5011961;28;20878;-53
2021/01/19 01:05:56;;;;;;;8.85;3.60;;;1.40;99.90;;;;;;5012798;28;20400;-54
2021/01/19 01:08:22;;;;;;;8.45;3.47;;;1.40;99.90;;;;;;5010249;28;20871;-54
2021/01/19 01:10:47;;;;;;;7.43;3.80;;;1.40;99.90;;;;;;5010568;28;20412;-53
2021/01/19 01:13:13;;;;;;;8.80;3.80;;;1.40;99.90;;;;;;5011497;28;20388;-53
2021/01/19 01:15:39;;;;;;;9.90;4.00;;;2.20;99.90;;;;;;5009500;28;20515;-53
2021/01/19 01:18:11;;;;;;;6.90;3.22;;;2.60;99.90;;;;;;4997537;28;20404;-53
2021/01/19 01:20:37;;;;;;;7.20;3.10;;;1.40;99.90;;;;;;4998431;28;20418;-53
2021/01/19 01:23:03;;;;;;;9.07;3.70;;;3.90;99.90;;;;;;4998031;28;20806;-53
2021/01/19 01:25:28;;;;;;;10.57;3.70;;;1.40;99.90;;;;;;4997567;28;20491;-53
2021/01/19 01:27:54;;;;;;;8.60;3.20;;;1.40;99.90;;;;;;5001829;28;20417;-53
2021/01/19 01:30:20;;;;;;;10.97;3.60;;;1.30;99.90;;;;;;4999629;28;20401;-53
2021/01/19 01:32:48;;;;;;;8.00;3.80;;;1.40;99.90;;;;;;5005351;28;20451;-53
2021/01/19 01:35:14;;;;;;;9.55;3.33;;;1.30;99.90;;;;;;5009717;28;20866;-53
2021/01/19 01:37:45;;;;;;;8.45;3.60;;;3.00;99.90;;;;;;5009382;28;20425;-53
2021/01/19 01:40:12;;;;;;;6.53;3.40;;;1.30;99.90;;;;;;5008242;28;20851;-53
2021/01/19 01:42:38;;;;;;;8.13;3.50;;;1.30;99.90;;;;;;5008950;28;20401;-53
2021/01/19 01:45:04;;;;;;;6.97;3.40;;;1.40;99.90;;;;;;5010635;28;20408;-53
2021/01/19 01:47:30;;;;;;;9.40;4.20;;;1.50;99.90;;;;;;5006452;28;20847;-55
2021/01/19 01:49:56;;;;;;;8.00;3.60;;;2.00;99.90;;;;;;5010448;28;20380;-54
2021/01/19 01:52:24;;;;;;;8.20;3.60;;;1.50;99.90;;;;;;5009553;28;20389;-54
2021/01/19 01:54:50;;;;;;;11.18;3.67;;;1.50;99.90;;;;;;5008639;28;20401;-54
2021/01/19 01:57:17;;;;;;;6.55;3.58;;;1.40;99.90;;;;;;5009958;28;20384;-54
2021/01/19 01:59:50;;;;;;;5.90;2.92;;;2.90;99.90;;;;;;5010416;28;20446;-54
2021/01/19 02:02:16;;;;;;;10.80;3.70;;;1.50;99.90;;;;;;5008639;28;20408;-54
2021/01/19 02:04:42;;;;;;;7.10;3.10;;;3.00;99.90;;;;;;5008543;28;20417;-55
2021/01/19 02:07:36;;;;;;;7.00;3.10;;;1.70;99.90;;;;;;5010152;28;20389;-55
2021/01/19 02:10:16;;;;;;;9.65;3.70;;;2.10;99.90;;;;;;5008461;28;20392;-54
2021/01/19 02:12:56;;;;;;;6.60;2.90;;;1.60;99.90;;;;;;5003050;28;20887;-55
2021/01/19 02:15:41;;;;;;;6.25;2.90;;;1.60;99.90;;;;;;4962750;28;1303875;-54
2021/01/19 02:18:23;;;;;;;6.10;3.22;;;1.60;99.90;;;;;;5010609;28;20558;-55
2021/01/19 02:21:03;;;;;;;6.13;3.00;;;1.60;99.90;;;;;;5010025;28;20398;-54
2021/01/19 02:23:55;;;;;;;6.43;3.00;;;3.10;99.90;;;;;;5009636;28;20427;-54
2021/01/19 02:26:57;;;;;;;6.13;2.80;;;1.80;99.90;;;;;;5003788;28;20774;-55
2021/01/19 02:29:22;;;;;;;7.03;3.10;;;1.90;99.90;;;;;;4996542;28;20494;-55
2021/01/19 02:31:51;;;;;;;6.93;2.87;;;4.60;99.90;;;;;;4999338;28;20977;-54
2021/01/19 02:34:56;;;;;;;6.03;2.30;;;1.90;99.90;;;;;;5001485;28;20420;-54
2021/01/19 02:37:28;;;;;;;6.93;2.70;;;1.90;99.90;;;;;;5004423;28;20408;-55
2021/01/19 02:40:17;;;;;;;5.80;2.70;;;1.90;99.90;;;;;;5008298;28;20440;-55
2021/01/19 02:43:09;;;;;;;5.93;2.90;;;2.00;99.90;;;;;;5010355;28;20381;-55
2021/01/19 02:45:36;;;;;;;7.47;3.20;;;2.00;99.90;;;;;;5008850;28;20927;-55
2021/01/19 02:48:03;;;;;;;6.38;2.70;;;4.40;99.90;;;;;;5010314;28;20420;-55
2021/01/19 02:50:29;;;;;;;7.13;2.77;;;2.10;99.90;;;;;;5008243;28;20507;-55
2021/01/19 02:52:55;;;;;;;7.87;2.70;;;2.90;99.90;;;;;;4998699;28;20491;-54
2021/01/19 02:55:21;;;;;;;6.30;3.33;;;3.80;99.90;;;;;;4994843;28;20395;-54
2021/01/19 02:58:05;;;;;;;9.60;3.40;;;2.20;99.90;;;;;;4997227;28;20409;-55
2021/01/19 03:00:47;;;;;;;6.05;2.95;;;2.10;99.90;;;;;;4997594;28;21057;-54
2021/01/19 03:03:14;;;;;;;7.80;2.80;;;2.20;99.90;;;;;;5002664;28;20497;-54
2021/01/19 03:05:41;;;;;;;6.45;2.80;;;2.30;99.90;;;;;;5009017;28;20412;-52
2021/01/19 03:08:07;;;;;;;5.60;2.70;;;2.30;99.90;;;;;;5003859;28;20403;-52
2021/01/19 03:10:40;;;;;;;6.70;2.63;;;2.30;99.90;;;;;;5003618;28;20404;-52
2021/01/19 03:13:12;;;;;;;7.25;2.72;;;3.60;99.90;;;;;;4998463;28;20401;-52
2021/01/19 03:15:38;;;;;;;8.45;3.00;;;3.40;99.90;;;;;;4998030;28;20505;-52
2021/01/19 03:18:04;;;;;;;6.28;2.50;;;2.80;99.90;;;;;;5007657;28;20411;-52
2021/01/19 03:20:30;;;;;;;5.53;2.70;;;2.30;99.90;;;;;;5009271;28;20381;-52
2021/01/19 03:22:56;;;;;;;7.55;2.95;;;2.30;99.90;;;;;;5004902;28;20420;-54
2021/01/19 03:25:21;;;;;;;6.57;2.60;;;2.20;99.90;;;;;;4999024;28;20852;-54
2021/01/19 03:27:47;;;;;;;7.13;2.40;;;2.30;99.90;;;;;;5002943;28;20401;-54
2021/01/19 03:30:13;;;;;;;5.85;2.90;;;2.40;99.90;;;;;;4999348;28;20918;-54
2021/01/19 03:32:39;;;;;;;6.80;3.00;;;2.30;99.90;;;;;;4997561;28;20419;-55
2021/01/19 03:35:06;;;;;;;8.15;3.17;;;3.50;99.90;;;;;;4999826;28;20489;-54
2021/01/19 03:37:31;;;;;;;6.50;2.60;;;2.10;99.90;;;;;;5007574;28;20388;-55
2021/01/19 03:39:57;;;;;;;7.00;3.10;;;2.10;99.90;;;;;;5000333;28;20441;-54
2021/01/19 03:42:22;;;;;;;5.80;2.70;;;2.10;99.90;;;;;;5002095;28;20803;-54
2021/01/19 03:44:48;;;;;;;8.60;2.53;;;2.10;99.90;;;;;;5008399;28;20416;-54
2021/01/19 03:47:14;;;;;;;7.47;2.70;;;2.10;99.90;;;;;;5009999;28;20440;-54
2021/01/19 03:49:39;;;;;;;6.50;2.60;;;2.10;99.90;;;;;;5008360;28;20476;-55
2021/01/19 03:52:05;;;;;;;5.68;2.78;;;4.00;99.90;;;;;;5009484;28;20381;-55
2021/01/19 03:54:30;;;;;;;7.13;2.30;;;2.70;99.90;;;;;;5007501;28;20611;-55
2021/01/19 03:56:56;;;;;;;7.70;2.40;;;2.00;99.90;;;;;;5005665;28;20455;-54
2021/01/19 03:59:22;;;;;;;6.80;2.58;;;2.00;99.90;;;;;;5000611;28;20400;-55
2021/01/19 04:01:49;;;;;;;5.43;2.47;;;2.90;99.90;;;;;;5002702;28;20888;-54
2021/01/19 04:04:15;;;;;;;5.25;2.35;;;1.90;99.90;;;;;;4996052;28;20446;-54
2021/01/19 04:06:41;;;;;;;5.57;2.38;;;1.90;99.90;;;;;;5009435;28;20439;-54
2021/01/19 04:09:06;;;;;;;5.80;2.50;;;2.70;99.90;;;;;;5001790;28;20728;-54
2021/01/19 04:11:32;;;;;;;6.53;2.30;;;3.80;99.90;;;;;;5003517;28;20412;-54
2021/01/19 04:13:58;;;;;;;4.88;2.60;;;1.70;99.90;;;;;;4999743;28;20439;-54
2021/01/19 04:16:23;;;;;;;7.22;2.50;;;1.60;99.90;;;;;;5007775;28;20747;-54
2021/01/19 04:18:49;;;;;;;6.47;2.38;;;1.60;99.90;;;;;;5000071;28;20452;-54
2021/01/19 04:21:15;;;;;;;6.43;2.33;;;1.70;99.90;;;;;;5000052;28;21357;-54
2021/01/19 04:23:40;;;;;;;6.32;2.85;;;3.10;99.90;;;;;;5007485;28;20500;-55
2021/01/19 04:26:06;;;;;;;5.00;2.40;;;1.70;99.90;;;;;;5009705;28;20539;-54
2021/01/19 04:28:32;;;;;;;6.40;2.50;;;1.70;99.90;;;;;;5002243;28;20649;-54
2021/01/19 04:30:57;;;;;;;5.63;2.50;;;2.90;99.90;;;;;;5007629;28;20433;-54
2021/01/19 04:33:23;;;;;;;5.30;2.53;;;1.70;99.90;;;;;;5008250;28;20431;-54
2021/01/19 04:35:49;;;;;;;5.45;2.40;;;1.70;99.90;;;;;;5002945;28;20940;-55
2021/01/19 04:38:16;;;;;;;6.25;2.60;;;1.60;99.90;;;;;;5008602;28;20878;-54
2021/01/19 04:40:41;;;;;;;7.05;2.45;;;1.60;99.90;;;;;;5011612;28;20381;-55
2021/01/19 04:43:09;;;;;;;6.60;2.70;;;2.60;99.90;;;;;;5011722;28;20393;-56
2021/01/19 04:45:35;;;;;;;6.70;2.97;;;2.30;99.90;;;;;;5010922;28;21312;-54
2021/01/19 04:48:02;;;;;;;6.47;2.33;;;2.40;99.90;;;;;;5009686;28;20479;-54
2021/01/19 04:50:31;;;;;;;6.40;2.40;;;1.40;99.90;;;;;;5000147;28;20395;-54
2021/01/19 04:52:59;;;;;;;5.50;2.78;;;3.90;99.90;;;;;;5002687;28;20394;-54
2021/01/19 04:55:26;;;;;;;6.63;2.60;;;3.00;99.90;;;;;;5003527;28;20412;-54
2021/01/19 04:58:04;;;;;;;7.82;2.72;;;2.00;99.90;;;;;;5004062;28;20947;-54
2021/01/19 05:00:35;;;;;;;6.15;2.60;;;1.90;99.90;;;;;;5001231;28;20408;-54
2021/01/19 05:03:21;;;;;;;5.88;2.42;;;1.50;99.90;;;;;;5002678;28;20413;-55
2021/01/19 05:05:46;;;;;;;5.73;2.80;;;1.60;99.90;;;;;;5011394;28;20401;-55
2021/01/19 05:08:15;;;;;;;6.20;2.60;;;2.40;99.90;;;;;;5010806;28;20451;-54
2021/01/19 05:10:42;;;;;;;6.05;2.75;;;2.80;99.90;;;;;;5011815;28;20393;-55
2021/01/19 05:13:09;;;;;;;8.23;2.50;;;3.00;99.90;;;;;;5010683;28;20428;-55
2021/01/19 05:15:45;;;;;;;6.82;2.53;;;1.30;99.90;;;;;;5011428;28;20401;-54
2021/01/19 05:18:12;;;;;;;5.43;2.20;;;1.30;99.90;;;;;;5011477;28;20416;-54
2021/01/19 05:20:49;;;;;;;6.40;2.70;;;3.60;99.90;;;;;;5010608;28;20924;-54
2021/01/19 05:23:22;;;;;;;7.38;2.50;;;1.30;99.90;;;;;;5011405;28;20395;-54
2021/01/19 05:25:55;;;;;;;6.28;2.50;;;2.40;99.90;;;;;;5010683;28;20755;-54
2021/01/19 05:28:29;;;;;;;6.72;2.40;;;1.30;99.90;;;;;;5010647;28;20929;-54
2021/01/19 05:30:54;;;;;;;5.60;2.40;;;1.30;99.90;;;;;;5011295;28;20409;-54
2021/01/19 05:33:20;;;;;;;7.15;3.00;;;3.10;99.90;;;;;;5009918;28;20770;-54
2021/01/19 05:35:46;;;;;;;8.83;2.87;;;1.40;99.90;;;;;;5010746;28;20771;-54
2021/01/19 05:38:11;;;;;;;6.83;2.30;;;1.40;99.90;;;;;;5007557;28;20405;-54
2021/01/19 05:40:44;;;;;;;6.10;2.53;;;2.30;99.90;;;;;;5004620;28;20428;-54
2021/01/19 05:43:12;;;;;;;5.10;2.50;;;1.30;99.90;;;;;;5006265;28;20445;-54
2021/01/19 05:45:50;;;;;;;6.82;2.80;;;2.60;99.90;;;;;;5011031;28;20381;-54
2021/01/19 05:48:16;;;;;;;6.20;2.85;;;1.30;99.90;;;;;;5007268;28;20939;-54
2021/01/19 05:50:42;;;;;;;6.22;2.80;;;1.20;99.90;;;;;;5007749;28;20552;-54
2021/01/19 05:53:16;;;;;;;6.33;2.40;;;1.20;99.90;;;;;;5008146;28;20822;-54
2021/01/19 05:55:43;;;;;;;6.20;3.00;;;2.70;99.90;;;;;;5008934;28;20786;-54
2021/01/19 05:58:16;;;;;;;7.60;2.67;;;1.10;99.90;;;;;;5001748;28;20446;-54
2021/01/19 06:00:42;;;;;;;7.10;2.95;;;1.20;99.90;;;;;;5007601;28;20393;-54
2021/01/19 06:03:17;;;;;;;6.03;2.58;;;1.20;99.90;;;;;;5004623;28;20449;-55
2021/01/19 06:05:44;;;;;;;11.30;3.60;;;1.20;99.90;;;;;;5007561;28;20388;-55
2021/01/19 06:08:11;;;;;;;8.35;3.05;;;1.20;99.90;;;;;;4998393;28;20405;-55
2021/01/19 06:10:39;;;;;;;8.00;3.40;;;1.30;99.90;;;;;;5005887;28;20405;-54
2021/01/19 06:13:15;;;;;;;7.60;3.38;;;1.20;99.90;;;;;;5009920;28;20389;-54
2021/01/19 06:15:41;;;;;;;8.50;3.60;;;1.20;99.90;;;;;;5010524;28;20813;-55
2021/01/19 06:18:08;;;;;;;7.03;3.80;;;1.20;99.90;;;;;;5010398;28;20404;-55
2021/01/19 06:20:41;;;;;;;7.72;3.67;;;1.10;99.90;;;;;;5009133;28;20420;-54
2021/01/19 06:23:09;;;;;;;8.02;3.60;;;1.00;99.90;;;;;;5009016;28;20397;-54
2021/01/19 06:25:36;;;;;;;6.20;3.30;;;1.10;99.90;;;;;;5009092;28;20391;-54
2021/01/19 06:28:12;;;;;;;8.07;3.10;;;2.80;99.90;;;;;;5009871;28;20487;-54
2021/01/19 06:30:37;;;;;;;6.78;3.20;;;1.10;99.90;;;;;;5007412;28;20409;-54
2021/01/19 06:33:04;;;;;;;6.13;3.08;;;1.10;99.90;;;;;;5009907;28;20409;-54
2021/01/19 06:35:39;;;;;;;7.60;3.42;;;1.20;99.90;;;;;;5009886;28;20495;-54
2021/01/19 06:38:07;;;;;;;8.05;3.20;;;1.20;99.90;;;;;;5007904;28;20420;-54
2021/01/19 06:40:37;;;;;;;7.78;3.28;;;3.80;99.90;;;;;;5009770;28;20419;-55
2021/01/19 06:43:05;;;;;;;7.88;3.10;;;1.40;99.90;;;;;;5009288;28;20762;-54
2021/01/19 06:45:32;;;;;;;8.20;3.10;;;1.30;99.90;;;;;;5009579;28;20766;-55
2021/01/19 06:48:01;;;;;;;8.30;3.22;;;1.30;99.90;;;;;;5010116;28;20389;-54
2021/01/19 06:50:34;;;;;;;8.15;3.35;;;1.20;99.90;;;;;;5008013;28;20393;-54
2021/01/19 06:53:15;;;;;;;6.82;3.42;;;1.30;99.90;;;;;;5009088;28;20396;-54
2021/01/19 06:55:58;;;;;;;6.50;3.00;;;1.30;99.90;;;;;;5002822;28;20433;-54
2021/01/19 06:58:55;;;;;;;8.30;3.22;;;1.20;99.90;;;;;;5008973;28;20389;-54
2021/01/19 07:01:25;;;;;;;7.05;2.70;;;1.20;99.90;;;;;;5008245;28;20598;-54
2021/01/19 07:04:13;;;;;;;8.00;3.53;;;1.10;99.90;;;;;;5007477;28;20416;-55
2021/01/19 07:06:56;;;;;;;10.38;3.67;;;1.00;99.90;;;;;;5008217;28;20614;-54
2021/01/19 07:10:03;;;;;;;6.85;2.90;;;1.00;99.90;;;;;;5009252;28;20468;-54
2021/01/19 07:13:01;;;;;;;8.02;3.33;;;1.00;99.90;;;;;;5007178;28;20886;-54
2021/01/19 07:15:54;;;;;;;6.37;3.30;;;0.90;99.90;;;;;;5003290;28;20424;-54
2021/01/19 07:18:28;;;;;;;6.33;2.67;;;0.90;99.90;;;;;;5006454;28;20400;-54
2021/01/19 07:21:03;;;;;;;6.63;2.70;;;1.10;99.90;;;;;;5009188;28;20400;-54
2021/01/19 07:23:48;;;;;;;7.90;3.40;;;2.20;99.90;;;;;;5007968;28;20894;-54
2021/01/19 07:26:22;;;;;;;7.25;2.95;;;0.80;99.90;;;;;;5008380;28;20782;-54
2021/01/19 07:28:50;;;;;;;7.20;3.00;;;0.80;99.90;;;;;;5008121;28;20466;-54
2021/01/19 07:31:19;;;;;;;7.30;2.80;;;0.80;99.90;;;;;;5008541;28;20419;-54
2021/01/19 07:33:48;;;;;;;7.03;3.08;;;2.50;99.90;;;;;;5007996;28;20401;-54
2021/01/19 07:36:22;;;;;;;7.40;3.10;;;0.90;99.90;;;;;;5008058;28;20488;-54
2021/01/19 07:38:48;;;;;;;7.53;3.30;;;3.40;99.90;;;;;;5009282;28;20943;-54
2021/01/19 07:41:31;;;;;;;7.43;2.83;;;0.80;99.90;;;;;;5009913;28;20389;-55
2021/01/19 07:43:57;;;;;;;6.25;3.25;;;1.00;99.90;;;;;;5007635;28;20463;-55
2021/01/19 07:46:28;;;;;;;10.82;3.08;;;1.00;99.90;;;;;;5007945;28;20855;-54
2021/01/19 07:49:07;;;;;;;9.05;3.42;;;1.10;99.90;;;;;;5008416;28;20867;-54
2021/01/19 07:51:48;;;;;;;6.63;2.83;;;1.10;99.90;;;;;;5008724;28;20385;-55
2021/01/19 07:54:25;;;;;;;8.20;3.20;;;1.10;99.90;;;;;;5007577;28;20515;-55
2021/01/19 07:56:51;;;;;;;5.90;2.90;;;1.20;99.90;;;;;;5009456;28;20796;-55
2021/01/19 07:59:19;;;;;;;6.20;3.00;;;1.20;99.90;;;;;;5009513;28;20421;-54
2021/01/19 08:01:55;;;;;;;7.65;2.92;;;1.30;99.90;;;;;;5012745;28;20425;-55
2021/01/19 08:04:31;;;;;;;8.25;2.95;;;1.30;99.90;;;;;;5011831;28;20532;-54
2021/01/19 08:06:57;;;;;;;6.30;2.90;;;3.80;99.90;;;;;;5011393;28;20491;-55
2021/01/19 08:09:24;;;;;;;6.57;2.80;;;1.50;99.90;;;;;;5012543;28;20381;-54
2021/01/19 08:12:14;;;;;;;5.93;2.40;;;3.20;99.90;;;;;;5011266;28;20821;-55
2021/01/19 08:14:49;;;;;;;6.40;2.60;;;1.70;99.90;;;;;;5012470;28;20408;-54
2021/01/19 08:17:15;;;;;;;7.80;2.83;;;1.70;99.90;;;;;;5011309;28;20432;-55
2021/01/19 08:19:42;;;;;;;5.23;2.60;;;1.70;99.90;;;;;;5010225;28;21229;-55
2021/01/19 08:22:09;;;;;;;5.43;2.65;;;1.80;99.90;;;;;;5012722;28;20389;-55
2021/01/19 08:24:34;;;;;;;7.18;2.90;;;2.00;99.90;;;;;;5010391;28;20782;-54
2021/01/19 08:27:01;;;;;;;6.15;2.53;;;4.10;99.90;;;;;;5011337;28;20850;-54
2021/01/19 08:29:28;;;;;;;9.02;3.60;;;2.20;99.90;;;;;;5009816;28;20397;-55
2021/01/19 08:32:03;;;;;;;6.80;2.72;;;2.20;99.90;;;;;;5012876;28;20742;-54
2021/01/19 08:34:32;;;;;;;6.57;2.53;;;2.20;99.90;;;;;;5010138;28;20436;-54
2021/01/19 08:36:59;;;;;;;7.90;2.72;;;2.50;99.90;;;;;;5012824;28;20381;-54
2021/01/19 08:39:25;;;;;;;6.78;2.50;;;4.70;99.90;;;;;;5010073;28;20393;-52
2021/01/19 08:41:52;;;;;;;5.82;2.30;;;5.00;99.90;;;;;;5011838;28;20449;-54
2021/01/19 08:44:19;;;;;;;7.22;2.42;;;4.20;99.90;;;;;;5011055;28;20842;-54
2021/01/19 08:46:46;;;;;;;7.10;2.63;;;4.90;99.90;;;;;;5011786;28;20393;-55
2021/01/19 08:49:15;;;;;;;6.75;2.60;;;5.30;99.90;;;;;;5010677;28;20405;-55
2021/01/19 08:51:49;;;;;;;7.20;2.60;;;5.10;99.90;;;;;;5010975;28;20396;-55
2021/01/19 08:54:15;;;;;;;6.50;2.90;;;4.70;99.90;;;;;;5011907;28;20389;-55
2021/01/19 08:56:43;;;;;;;6.53;2.60;;;4.50;99.90;;;;;;5010098;28;20420;-55
2021/01/19 08:59:16;;;;;;;7.05;2.95;;;4.40;99.90;;;;;;5010852;28;20426;-55
2021/01/19 09:01:54;;;;;;;6.60;2.70;;;4.00;99.90;;;;;;5010790;28;20401;-54
2021/01/19 09:04:24;;;;;;;7.50;2.90;;;4.50;99.90;;;;;;5009862;28;20428;-54
2021/01/19 09:07:03;;;;;;;10.63;3.40;;;3.80;99.90;;;;;;5010912;28;20491;-54
2021/01/19 09:09:29;;;;;;;7.75;2.85;;;3.70;99.90;;;;;;5008044;28;20889;-54
2021/01/19 09:11:55;;;;;;;9.35;2.90;;;5.10;99.90;;;;;;5011650;28;20469;-55
2021/01/19 09:14:25;;;;;;;6.78;2.97;;;4.20;99.90;;;;;;5008360;28;20760;-54
2021/01/19 09:16:52;;;;;;;8.33;3.10;;;3.20;99.90;;;;;;5010140;28;20447;-55
2021/01/19 09:19:17;;;;;;;9.93;3.35;;;3.20;99.90;;;;;;5011039;28;20758;-55
2021/01/19 09:21:43;;;;;;;9.77;3.10;;;3.00;99.90;;;;;;5009048;28;20507;-54
2021/01/19 09:24:24;;;;;;;7.57;2.92;;;3.00;99.90;;;;;;5011528;28;20960;-54
2021/01/19 09:27:00;;;;;;;7.20;3.00;;;4.10;99.90;;;;;;5010560;28;20459;-55
2021/01/19 09:29:31;;;;;;;6.97;3.25;;;2.80;99.90;;;;;;5010252;28;20387;-54
2021/01/19 09:32:01;;;;;;;6.97;3.40;;;2.80;99.90;;;;;;5009724;28;20408;-55
2021/01/19 09:34:28;;;;;;;8.50;3.13;;;3.80;99.90;;;;;;5009799;28;20438;-54
2021/01/19 09:36:55;;;;;;;9.38;3.10;;;4.80;99.90;;;;;;5011088;28;20434;-54
2021/01/19 09:39:28;;;;;;;7.80;3.10;;;2.90;99.90;;;;;;5008936;28;20397;-54
2021/01/19 09:41:57;;;;;;;11.73;4.43;;;2.70;99.90;;;;;;5010587;28;20381;-54
2021/01/19 09:44:23;;;;;;;15.15;11.65;;;4.90;99.90;;;;;;5010031;28;20447;-54
2021/01/19 09:46:52;;;;;;;9.63;4.60;;;4.10;99.90;;;;;;5009303;28;20411;-54
2021/01/19 09:49:24;;;;;;;12.40;5.80;;;3.40;99.90;;;;;;5011047;28;20447;-55
2021/01/19 09:51:50;;;;;;;20.35;10.80;;;3.60;99.90;;;;;;5009717;28;20393;-54
2021/01/19 09:54:23;;;;;;;15.93;8.48;;;2.70;99.90;;;;;;5010421;28;20886;-55
2021/01/19 09:56:59;;;;;;;19.53;9.10;;;2.60;99.90;;;;;;5006899;28;20405;-55
2021/01/19 09:59:31;;;;;;;22.55;11.05;;;3.00;99.90;;;;;;5008933;28;20396;-54
2021/01/19 10:01:58;;;;;;;22.38;10.68;;;3.80;99.90;;;;;;5008474;28;20499;-54
2021/01/19 10:04:25;;;;;;;18.23;8.30;;;2.90;99.90;;;;;;5007142;28;20479;-54
2021/01/19 10:07:10;;;;;;;9.38;3.90;;;2.90;99.90;;;;;;5007514;28;20895;-54
2021/01/19 10:09:37;;;;;;;8.35;4.30;;;3.00;99.90;;;;;;5006861;28;20381;-55
2021/01/19 10:12:08;;;;;;;8.05;3.60;;;4.60;99.90;;;;;;5008942;28;20405;-54
2021/01/19 10:14:37;;;;;;;8.40;3.58;;;3.00;99.90;;;;;;5009580;28;20474;-54
2021/01/19 10:17:03;;;;;;;7.22;3.10;;;3.20;99.90;;;;;;5009518;28;20546;-54
2021/01/19 10:19:30;;;;;;;8.15;4.10;;;3.00;99.90;;;;;;5009811;28;20490;-54
2021/01/19 10:21:58;;;;;;;9.25;3.50;;;2.90;99.90;;;;;;5008496;28;20516;-55
2021/01/19 10:24:25;;;;;;;7.22;3.47;;;2.90;99.90;;;;;;5008628;28;20495;-54
2021/01/19 10:27:01;;;;;;;7.40;2.72;;;2.90;99.90;;;;;;5009113;28;20420;-54
2021/01/19 10:29:37;;;;;;;8.05;3.30;;;3.00;99.90;;;;;;5001123;28;20462;-54
2021/01/19 10:32:06;;;;;;;13.63;5.18;;;3.20;99.90;;;;;;5009296;28;20405;-54
2021/01/19 10:34:36;;;;;;;7.30;3.00;;;3.30;99.90;;;;;;5009103;28;20412;-55
2021/01/19 10:37:02;;;;;;;10.23;5.35;;;3.20;99.90;;;;;;5008554;28;20486;-55
2021/01/19 10:39:30;;;;;;;7.82;4.32;;;3.30;99.90;;;;;;5008934;28;20381;-54
2021/01/19 10:41:56;;;;;;;23.52;11.95;;;3.40;99.90;;;;;;5008160;28;20914;-55
2021/01/19 10:44:24;;;;;;;54.70;24.42;;;3.40;99.90;;;;;;5009089;28;20825;-54
2021/01/19 10:47:00;;;;;;;11.60;3.42;;;3.40;99.90;;;;;;5008399;28;20404;-54
2021/01/19 10:49:30;;;;;;;13.32;6.80;;;4.30;99.90;;;;;;5006471;28;20405;-54
2021/01/19 10:51:56;;;;;;;11.20;6.20;;;4.80;99.90;;;;;;5008110;28;20392;-54
2021/01/19 10:54:24;;;;;;;9.07;4.65;;;3.20;99.90;;;;;;5008221;28;20408;-54
2021/01/19 10:57:19;;;;;;;13.77;6.07;;;3.30;99.90;;;;;;5007835;28;20877;-55
2021/01/19 10:59:46;;;;;;;9.18;3.50;;;3.40;99.90;;;;;;4994484;28;20488;-55
2021/01/19 11:02:12;;;;;;;7.25;2.90;;;3.50;99.90;;;;;;5006275;28;20484;-55
2021/01/19 11:04:38;;;;;;;7.38;3.25;;;5.00;99.90;;;;;;5008453;28;20500;-55
2021/01/19 11:07:03;;;;;;;8.00;4.30;;;3.70;99.90;;;;;;5008028;28;20504;-55
2021/01/19 11:09:29;;;;;;;10.07;3.17;;;3.80;99.90;;;;;;5008178;28;20396;-54
2021/01/19 11:11:54;;;;;;;10.60;3.90;;;4.60;99.90;;;;;;5008413;28;20396;-54
2021/01/19 11:14:20;;;;;;;9.20;3.40;;;3.80;99.90;;;;;;5008147;28;20412;-55
2021/01/19 11:16:46;;;;;;;7.78;2.80;;;5.40;99.90;;;;;;5008391;28;21109;-55
2021/01/19 11:19:13;;;;;;;7.23;2.90;;;3.80;99.90;;;;;;5008058;28;20484;-54
2021/01/19 11:21:40;;;;;;;7.85;3.20;;;3.90;99.90;;;;;;5008774;28;20958;-55
2021/01/19 11:24:07;;;;;;;6.70;3.00;;;4.80;99.90;;;;;;5008218;28;20420;-54
2021/01/19 11:26:38;;;;;;;8.73;4.00;;;4.00;99.90;;;;;;5008320;28;20772;-54
2021/01/19 11:29:05;;;;;;;11.07;4.30;;;4.00;99.90;;;;;;5009604;28;20391;-55
2021/01/19 11:31:31;;;;;;;7.90;3.88;;;4.00;99.90;;;;;;5005406;28;20404;-54
2021/01/19 11:34:01;;;;;;;10.10;3.60;;;4.00;99.90;;;;;;5009508;28;20407;-55
2021/01/19 11:36:29;;;;;;;7.20;3.35;;;4.40;99.90;;;;;;5011514;28;20417;-54
2021/01/19 11:38:56;;;;;;;9.27;3.50;;;4.40;99.90;;;;;;5011614;28;20399;-55
2021/01/19 11:41:24;;;;;;;6.85;3.25;;;6.20;99.90;;;;;;5011780;28;20393;-55
2021/01/19 11:43:50;;;;;;;7.72;3.00;;;4.10;99.90;;;;;;5012112;28;20404;-54
2021/01/19 11:46:30;;;;;;;7.63;3.30;;;4.80;99.90;;;;;;5011742;28;20455;-54
2021/01/19 11:48:57;;;;;;;10.07;4.30;;;3.90;99.90;;;;;;5012950;28;20377;-54
2021/01/19 11:51:28;;;;;;;8.93;3.50;;;3.80;99.90;;;;;;5010484;28;20405;-54
2021/01/19 11:53:56;;;;;;;9.98;4.50;;;3.70;99.90;;;;;;5011526;28;20405;-55
2021/01/19 11:56:40;;;;;;;9.23;3.80;;;3.80;99.90;;;;;;5011074;28;20431;-54
2021/01/19 11:59:07;;;;;;;10.38;4.40;;;3.90;99.90;;;;;;5012968;28;20431;-55
2021/01/19 12:01:33;;;;;;;9.03;3.73;;;4.70;99.90;;;;;;5011732;28;20463;-54
2021/01/19 12:03:59;;;;;;;13.07;5.30;;;3.80;99.90;;;;;;5010648;28;20452;-54
2021/01/19 12:06:25;;;;;;;10.38;4.10;;;3.90;99.90;;;;;;5010296;28;20416;-54
2021/01/19 12:08:52;;;;;;;9.70;4.07;;;3.90;99.90;;;;;;5012321;28;20780;-55
2021/01/19 12:11:19;;;;;;;12.50;4.67;;;4.00;99.90;;;;;;5012883;28;20389;-54
2021/01/19 12:13:46;;;;;;;10.10;4.60;;;3.70;99.90;;;;;;5010425;28;20408;-55
2021/01/19 12:16:17;;;;;;;9.40;4.43;;;3.70;99.90;;;;;;5012809;28;20507;-55
2021/01/19 12:18:46;;;;;;;8.07;4.30;;;3.90;99.90;;;;;;5012134;28;20649;-55
2021/01/19 12:21:12;;;;;;;11.80;4.32;;;3.70;99.90;;;;;;5011138;28;20445;-54
2021/01/19 12:23:38;;;;;;;12.40;4.80;;;3.80;99.90;;;;;;5010168;28;22487;-54
2021/01/19 12:26:03;;;;;;;8.02;4.32;;;3.80;99.90;;;;;;5012000;28;20504;-54
2021/01/19 12:28:29;;;;;;;9.67;4.40;;;4.80;99.90;;;;;;5011908;28;20424;-55
2021/01/19 12:30:55;;;;;;;9.73;4.25;;;4.00;99.90;;;;;;5011213;28;20920;-54
2021/01/19 12:33:21;;;;;;;10.80;4.88;;;4.20;99.90;;;;;;5011283;28;20724;-55
2021/01/19 12:35:48;;;;;;;9.30;4.93;;;4.20;99.90;;;;;;5009849;28;20389;-55
2021/01/19 12:38:14;;;;;;;8.25;4.47;;;5.40;99.90;;;;;;5012706;28;20419;-54
2021/01/19 12:40:39;;;;;;;9.05;4.88;;;4.50;99.90;;;;;;5009964;28;20429;-54
2021/01/19 12:43:05;;;;;;;10.05;4.45;;;4.50;99.90;;;;;;5012632;28;20435;-55
2021/01/19 12:45:31;;;;;;;10.40;4.40;;;4.50;99.90;;;;;;5009693;28;20444;-54
2021/01/19 12:47:56;;;;;;;6.90;3.95;;;4.50;99.90;;;;;;5012222;28;20451;-55
2021/01/19 12:50:22;;;;;;;9.67;4.13;;;4.40;99.90;;;;;;5010369;28;20397;-54
2021/01/19 12:52:48;;;;;;;7.53;3.63;;;4.30;99.90;;;;;;5011397;28;20381;-55
2021/01/19 12:55:13;;;;;;;7.40;3.20;;;5.10;99.90;;;;;;5010786;28;20732;-55
2021/01/19 12:57:39;;;;;;;52.50;27.40;;;4.50;99.90;;;;;;5009695;28;20493;-55
2021/01/19 13:00:07;;;;;;;10.23;6.82;;;4.30;99.90;;;;;;5009244;28;20929;-54
2021/01/19 13:02:33;;;;;;;9.52;5.95;;;4.40;99.90;;;;;;5011291;28;20526;-53
2021/01/19 13:05:01;;;;;;;8.77;3.97;;;4.50;99.90;;;;;;5010225;28;20413;-54
2021/01/19 13:07:27;;;;;;;8.73;3.80;;;4.50;99.90;;;;;;5011569;28;20431;-54